x

8419317 - Wells, Me (welm1) Weather Station

8:30 - Fri 28th Apr 2017 All times are EDT. -4 hours from GMT.

  • Wind
    3mph, 5mph gusts
  • Sea Temp 54°f
  • Luft Temp 54°f
  • Sea Pressure 1013.8mb
  • 8419317 - Wells, Me
  • 8419317 - Wells, Me

More Historic Weather Station data

Upgrade to MSW Pro to gain access to the past 30 days of data for over 8000 Wavebouys and Weather Stations around the globe.

Join Pro

Comparision Forecast

View Surf forecast
   
Fr 04/28 8:30 3 5 mph 1013.8mb 54f 54f
8:24 3 5 mph 1013.7mb 54f 53f
8:18 2
mph
1013.6mb 54f 53f
8:12 1 2 mph 1013.6mb 53f 53f
8:06 2
mph
1013.5mb 53f 53f
8:00 2 3 mph 1013.4mb 53f 54f
7:48 3
mph
1013.2mb 52f 54f
7:42 1 2 mph 1013.2mb 52f 54f
7:36 2
mph
1013.2mb 52f 54f
7:30 2 3 mph 1013.2mb 52f 54f
7:24 3
mph
1013.1mb 51f 54f
7:18 1 2 mph 1013mb 51f 55f
7:12 2
mph
1012.9mb 51f 55f
7:06 2
mph
1012.9mb 51f 54f
7:00 1 3 mph 1012.8mb 51f 55f
6:54 3 5 mph 1012.6mb 51f 55f
6:48 5 6 mph 1012.6mb 51f 55f
6:42 3 6 mph 1012.6mb 51f 56f
6:36 3 5 mph 1012.7mb 51f 55f
6:30 3 6 mph 1012.7mb 51f 55f
6:24 6 7 mph 1012.8mb 51f 55f
6:18 6 8 mph 1012.9mb 51f 55f
6:12 6 11 mph 1012.9mb 51f 56f
6:06 10 13 mph 1012.8mb 51f 56f
6:00 9 13 mph 1012.6mb 50f 57f
5:48 8 11 mph 1012.6mb 49f 57f
5:42 10 11 mph 1012.5mb 49f 57f
5:36 7 9 mph 1012.5mb 49f 56f
5:30 8 10 mph 1012.6mb 49f 56f
5:24 7 9 mph 1012.7mb 48f 56f
5:18 8 10 mph 1012.6mb 48f 56f
5:12 9 13 mph 1012.5mb 48f 55f
5:06 10 13 mph 1012.4mb 48f 55f
5:00 11 13 mph 1012.6mb 48f 55f
4:54 7 8 mph 1012.7mb 48f 55f
4:48 5 11 mph 1012.8mb 48f 55f
4:42 10 14 mph 1012.9mb 48f 55f
4:36 6 7 mph 1012.9mb 50f 55f
4:30 6 8 mph 1012.8mb 50f 55f
4:24 5 7 mph 1012.9mb 50f 55f
4:18 6 8 mph 1012.8mb 50f 53f
4:12 6 7 mph 1012.8mb 50f 53f
4:06 3 5 mph 1012.9mb 49f 54f
4:00 3 5 mph 1012.8mb 49f 55f
3:54 2 5 mph 1012.8mb 49f 55f
3:48 2 6 mph 1012.6mb 49f 53f
3:42 6 7 mph 1012.2mb 49f 52f
3:36 5 7 mph 1012.5mb 49f 52f
3:30 6 7 mph 1012.6mb 49f 52f
3:24 6 7 mph 1012.9mb 48f 52f
3:18 5 7 mph 1013.1mb 48f 54f
3:12 3 6 mph 1013.3mb 48f 54f
3:06 3 5 mph 1013.6mb 48f 55f
3:00 2 3 mph 1013.7mb 48f 55f
2:54 3 5 mph 1013.6mb 47f 55f
2:48 2 3 mph 1013.7mb 47f 53f
2:42 2 3 mph 1013.6mb 47f 55f
2:36  -  3 mph 1013.8mb 47f 54f
2:30 1 3 mph 1014mb 47f 55f
2:24 3 5 mph 1014.1mb 47f 52f
2:18 3 7 mph 1014.1mb 46f 52f
2:12 6 7 mph 1014mb 46f 52f
2:06 6 8 mph 1013.9mb 46f 52f
2:00 6 7 mph 1013.9mb 46f 52f
1:54 6 8 mph 1013.9mb 46f 52f
1:48 7 8 mph 1013.9mb 47f 52f
1:42 6 8 mph 1014mb 46f 52f
1:36 6 8 mph 1013.9mb 46f 52f
1:30 7 8 mph 1013.9mb 46f 52f
1:24 6 7 mph 1014mb 46f 52f
1:18 5 8 mph 1014mb 46f 51f
1:12 6 7 mph 1014mb 46f 51f
1:06 6 9 mph 1014.1mb 46f 50f
1:00 7 9 mph 1014.2mb 46f 51f
12:54 7 9 mph 1014mb 46f 51f
12:48 7 8 mph 1014.1mb 46f 51f
12:42 5 6 mph 1014.2mb 46f 51f
12:36 3
mph
1014.3mb 46f 51f
12:30 2 5 mph 1014.4mb 46f 50f
12:24 3 5 mph 1014.5mb 46f 50f
12:18 2 3 mph 1014.3mb 46f 49f
12:12 3 5 mph 1014.3mb 46f 49f
12:06 2 5 mph 1014.3mb 46f 49f
12:00 3 5 mph 1014.2mb 46f 49f
11:54 2 3 mph 1014.3mb 46f 49f
11:48 2 5 mph 1014.4mb 46f 51f
11:42 3
mph
1014.4mb 46f 50f
11:36 2 3 mph 1014.5mb 46f 52f
11:30 3 5 mph 1014.6mb 46f 51f
11:24 3 5 mph 1014.7mb 46f 51f
11:18 5 6 mph 1014.7mb 46f 51f
11:12 3
mph
1014.5mb 46f 50f
11:06 2 5 mph 1014.4mb 46f 49f
11:00 5
mph
1014.3mb 46f 50f
10:54 6 7 mph 1014.3mb 46f 49f
10:48 6 7 mph 1014.1mb 46f 50f
10:42 5 6 mph 1014mb 46f 51f
10:36 3
mph
1014.1mb 46f 50f
10:30 3
mph
1014.2mb 46f 49f
10:24 2
mph
1014.6mb 46f 49f
10:18 2 5 mph 1014.6mb 46f 49f
10:12 3 5 mph 1014.7mb 46f 49f
10:06  -  3 mph 1014.6mb 46f 49f
10:00  -  2 mph 1014.6mb 46f 49f
9:54 1 2 mph 1014.7mb 47f 49f
9:48 3
mph
1014.3mb 47f 49f
9:42 2 5 mph 1014.3mb 47f 49f
9:36 3 5 mph 1014.5mb 47f 49f
9:30 2 5 mph 1014.5mb 47f 49f
9:24 5
mph
1014.4mb 47f 49f
9:18 3 6 mph 1014.4mb 47f 50f
9:12 5 6 mph 1014.7mb 47f 50f
9:06 3 6 mph 1014.6mb 47f 50f
9:00 3 6 mph 1014.7mb 47f 50f
8:54 6 7 mph 1014.9mb 47f 49f
8:48 6 7 mph 1014.9mb 47f 49f
8:42 5
mph
1014.8mb 47f 50f
8:36 2 5 mph 1014.5mb 47f 49f
8:30 3 5 mph 1014.6mb 47f 49f
8:24 2 3 mph 1014.5mb 47f 49f
8:18 2 6 mph 1014.4mb 47f 49f
8:12 6
mph
1014.7mb 47f 49f
8:06 5 6 mph 1014.7mb 47f 49f
8:00 5 6 mph 1014.8mb 47f 49f
7:30 3 6 mph 1014.6mb 47f 49f
7:24 5
mph
1014.5mb 47f 49f
7:18 3 5 mph 1014.6mb 47f 49f
7:12 2
mph
1014.6mb 47f 49f
7:06 3 5 mph 1014.4mb 47f 49f
7:00  -  1 mph 1014.3mb 47f 49f
6:54  -  mph 1014.4mb 47f 49f
6:48  -  mph 1014.3mb 47f 49f
6:42  -  1 mph 1014.5mb 47f 48f
6:36  -  1 mph 1014.5mb 47f 48f
6:30  -  2 mph 1014.3mb 47f 48f
6:24 1 2 mph 1014.2mb 47f 48f
6:18 3
mph
1014.4mb 47f 48f
6:12  -  2 mph 1014.4mb 47f 48f
6:06 2 5 mph 1014mb 47f 48f
6:00 3
mph
1014mb 47f 48f
5:54 2
mph
1014mb 47f 48f
5:48  -  2 mph 1014mb 47f 48f
5:42 2 3 mph 1013.9mb 47f 48f
5:36 2
mph
1013.8mb 47f 47f
5:30 1 2 mph 1013.6mb 47f 47f
5:24 2 3 mph 1013.9mb 47f 47f
5:18 2 5 mph 1014mb 47f 47f
5:12 2 3 mph 1014mb 47f 47f
5:06 2 3 mph 1014mb 47f 47f
5:00 2 3 mph 1014mb 47f 47f
4:54 2 5 mph 1013.9mb 47f 47f
4:48 5 6 mph 1013.7mb 47f 47f
4:42 5 6 mph 1013.6mb 46f 47f
4:36 2
mph
1013.9mb 46f 47f
4:30 2 3 mph 1014.1mb 46f 47f
4:24 2
mph
1014mb 46f 47f
4:18 2 3 mph 1013.9mb 46f 47f
4:12 3
mph
1014mb 46f 47f
4:06 2
mph
1014mb 46f 47f
4:00 2
mph
1013.9mb 46f 47f
3:54 1 2 mph 1014mb 46f 47f
3:48 1 2 mph 1014mb 46f 47f
3:42 1 2 mph 1014mb 46f 47f
3:36 1 2 mph 1013.9mb 46f 47f
3:30  -  1 mph 1013.8mb 46f 47f
3:24 1 2 mph 1013.8mb 46f 47f
3:18 1 2 mph 1013.7mb 46f 47f
3:12  -  1 mph 1013.7mb 46f 47f
3:06  -  1 mph 1013.8mb 46f 47f
3:00 1 2 mph 1013.7mb 46f 47f
2:54 1 2 mph 1013.6mb 46f 47f
2:48 2
mph
1013.7mb 46f 47f
2:42 1 2 mph 1013.7mb 46f 47f
2:36 1 2 mph 1013.8mb 46f 47f
2:30 1 2 mph 1013.7mb 46f 46f
2:24 2
mph
1013.7mb 46f 46f
2:18 1 2 mph 1013.8mb 46f 46f
2:12  -  1 mph 1013.8mb 46f 47f
2:06  -  2 mph 1013.9mb 46f 47f
2:00 2
mph
1013.8mb 46f 47f
1:54 2
mph
1013.8mb 46f 46f
1:48 1 2 mph 1014mb 46f 46f
1:42 2
mph
1013.9mb 46f 46f
1:36  -  1 mph 1014mb 46f 46f
1:30  -  1 mph 1014mb 46f 46f
1:24  -  1 mph 1014.1mb 46f 46f
1:18  -  1 mph 1014mb 46f 46f
1:12 1
mph
1014.1mb 46f 46f
1:06  -  1 mph 1014.1mb 46f 46f
1:00  -  1 mph 1014.2mb 46f 46f
12:54 1 2 mph 1014.1mb 46f 46f
12:48 2
mph
1014.1mb 46f 46f
12:42 2
mph
1014.2mb 46f 46f
12:36 2
mph
1014.3mb 46f 46f
12:30 2 3 mph 1014.3mb 46f 46f
12:24 3 5 mph 1014mb 46f 46f
12:18 5 6 mph 1013.8mb 46f 46f
12:12 2 3 mph 1014.1mb 46f 46f
12:06 3
mph
1014mb 46f 46f
12:00 2
mph
1014.1mb 46f 46f
Do 04/27 11:54  -  1 mph 1014.3mb 46f 46f
11:48 1 2 mph 1014.4mb 46f 46f
11:42  -  1 mph 1014.4mb 46f 46f
11:36  -  2 mph 1014.4mb 46f 46f
11:30 1 2 mph 1014.5mb 46f 46f
11:24 1 3 mph 1014.5mb 46f 46f
11:18 1 2 mph 1014.4mb 46f 46f
11:12  -  2 mph 1014.3mb 46f 46f
11:06  -  2 mph 1014.3mb 46f 46f
11:00 2
mph
1014.3mb 46f 46f
10:54 2 3 mph 1014.2mb 46f 46f
10:48 2 3 mph 1014.2mb 46f 47f
10:42 2 3 mph 1014.4mb 46f 47f
10:36 2
mph
1014.5mb 46f 47f
10:30 1 2 mph 1014.6mb 46f 47f
10:24 2 3 mph 1014.7mb 46f 47f
10:18  -  3 mph 1014.6mb 46f 47f
10:12 2
mph
1014.5mb 46f 47f
10:06 1 2 mph 1014.5mb 46f 47f
10:00 2
mph
1014.6mb 46f 47f
9:54 2 5 mph 1014.6mb 46f 47f
9:48 3 6 mph 1014.6mb 46f 47f
9:42 6 7 mph 1014.6mb 46f 47f
9:36 6 7 mph 1014.5mb 46f 47f
9:30 5 6 mph 1014.3mb 46f 47f
9:24 3 5 mph 1014.4mb 46f 47f
9:18 3 6 mph 1014.5mb 46f 47f
9:12 5 6 mph 1014.4mb 47f 47f
9:06 5
mph
1014.6mb 47f 47f
9:00 3 5 mph - 48f 47f
8:48 2 3 mph 1014.4mb 51f 47f
8:42 2 3 mph 1014.4mb 51f 48f
8:36 2 3 mph 1014.2mb 51f 48f
8:30 3
mph
1014.1mb 51f 48f
8:24 2 3 mph 1014mb 51f 48f
8:18 2 3 mph 1013.9mb 51f 48f
8:12 2 3 mph 1013.7mb 51f 48f
8:06 2 3 mph 1013.7mb 52f 48f
8:00 3 5 mph 1013.6mb 51f 48f
7:48 5
mph
1013.5mb 51f 48f
7:42 3 5 mph 1013.5mb 51f 48f
7:36 2 3 mph 1013.6mb 51f 48f
7:30 2 3 mph 1013.7mb 51f 48f
7:24 3
mph
1013.5mb 50f 48f
7:18 2
mph
1013.6mb 50f 48f
7:12 2
mph
1013.5mb 50f 48f
7:06 2
mph
1013.6mb 50f 48f
7:00 1 2 mph 1013.7mb 50f 48f
6:48  -  2 mph 1013.8mb 50f 48f
6:42 2 3 mph 1013.8mb 50f 48f
6:36 3 6 mph 1013.7mb 49f 48f
6:30 5 6 mph 1013.6mb 49f 48f
6:24 3 5 mph 1013.7mb 49f 48f
6:18 2 5 mph 1013.8mb 49f 48f
6:12 3 5 mph 1013.7mb 49f 48f
6:06 2 6 mph 1013.7mb 49f 48f
5:48 5 7 mph 1013.6mb 48f 48f
5:42 7 10 mph 1013.4mb 48f 48f
5:36 7 9 mph 1013.4mb 48f 49f
5:30 8 11 mph 1013.4mb 48f 49f
5:24 6 10 mph 1013.6mb 48f 49f
5:18 6 8 mph 1013.5mb 48f 49f
5:12 7 9 mph 1013.4mb 48f 48f
5:06 7 9 mph 1013.3mb 48f 49f
5:00 8 10 mph 1013.4mb 47f 48f
4:54 9 14 mph 1013.4mb 47f 48f
4:48 10 14 mph 1013.4mb 47f 49f
4:42 10 13 mph 1013.4mb 47f 49f
4:36 9 13 mph 1013.5mb 47f 49f
4:30 10 13 mph 1013.5mb 47f 49f
4:24 9 13 mph 1013.5mb 47f 49f
4:18 11 14 mph 1013.4mb 47f 49f
4:12 11 14 mph 1013.4mb 47f 49f
4:06 10 13 mph 1013.4mb 47f 49f
4:00 9 13 mph 1013.4mb 47f 49f
3:54 8 11 mph 1013.5mb 48f 48f
3:48 10 11 mph 1013.5mb 49f 49f
3:42 8 10 mph 1013.6mb 49f 48f
3:36 8 10 mph 1013.6mb 48f 48f
3:30 7 11 mph 1013.6mb 48f 48f
3:24 8 11 mph 1013.7mb 48f 48f
3:18 9 11 mph 1013.7mb 48f 48f
3:12 9 11 mph 1013.7mb 48f 48f
3:06 8 11 mph 1013.7mb 48f 48f
3:00 8 11 mph 1013.7mb 48f 48f
2:54 7 11 mph 1013.7mb 48f 48f
2:48 8 11 mph 1013.7mb 47f 48f
2:42 9 11 mph 1013.7mb 47f 48f
2:36 8 11 mph 1013.7mb 47f 48f
2:30 8 11 mph 1013.6mb 47f 48f
2:24 9 11 mph 1013.6mb 47f 48f
2:18 9 10 mph 1013.6mb 47f 48f
2:12 8 9 mph 1013.6mb 47f 48f
2:06 7 8 mph 1013.6mb 47f 49f
2:00 6 7 mph 1013.6mb 46f 49f
1:54 5 9 mph 1013.6mb 46f 49f
1:48 8 10 mph 1013.6mb 46f 48f
1:42 9 10 mph 1013.5mb 46f 48f
1:36 8 9 mph 1013.5mb 46f 49f
1:30 6 7 mph 1013.6mb 46f 49f
1:24 5 7 mph 1013.5mb 46f 49f
1:18 7 8 mph 1013.5mb 46f 49f
1:12 7 8 mph 1013.5mb 46f 49f
1:06 7 8 mph 1013.5mb 46f 48f
1:00 7 9 mph 1013.7mb 46f 48f
12:48 9 10 mph 1013.7mb 46f 48f
12:42 8 11 mph 1013.8mb 46f 48f
12:36 9 11 mph 1013.9mb 46f 49f
12:30 9 11 mph 1014mb 46f 50f
12:24 7 10 mph 1013.9mb 46f 51f
12:18 9 11 mph 1013.8mb 46f 50f
12:12 8 10 mph 1013.8mb 46f 50f
12:06 6 7 mph 1013.9mb 46f 54f
12:00 3 5 mph 1013.9mb 46f 55f
11:54 3 6 mph 1013.9mb 46f 54f
11:48 6 7 mph 1013.9mb 46f 54f
11:42 6 7 mph 1014mb 46f 54f
11:36 6 7 mph 1014mb 46f 53f
11:30 6 8 mph 1014.1mb 46f 53f
11:24 7 8 mph 1013.9mb 46f 53f
11:18 7 9 mph 1013.9mb 46f 53f
11:12 7 8 mph 1013.9mb 46f 53f
11:06 7 9 mph 1013.9mb 46f 52f
11:00 8
mph
1013.8mb 46f 53f
10:54 5 7 mph 1013.8mb 46f 52f
10:48 3 5 mph 1013.8mb 46f 51f
10:42 5 6 mph 1013.8mb 46f 50f
10:36 6 7 mph 1013.8mb 45f 49f
10:30 6 7 mph 1013.8mb 45f 48f
10:24 5 6 mph 1013.8mb 46f 48f
10:18 6 7 mph 1013.8mb 46f 48f
10:12 6 7 mph 1013.8mb 46f 48f
10:06 5 6 mph 1013.8mb 46f 49f
10:00 2
mph
1013.8mb 46f 51f
9:54  -  5 mph 1013.8mb 46f 52f
9:48 2 3 mph 1013.8mb 46f 52f
9:42 2 5 mph 1013.8mb 46f 52f
9:36 5 6 mph 1013.8mb 46f 52f
9:30 6 8 mph 1013.7mb 46f 52f
9:24 2 5 mph 1013.6mb 46f 51f
9:18 2 3 mph 1013.6mb 46f 50f
9:12 3 5 mph 1013.6mb 46f 50f
9:06 2 3 mph 1013.5mb 46f 50f
9:00 3
mph
1013.4mb 46f 50f
8:54 3 6 mph 1013.3mb 46f 50f
8:48 5 7 mph 1013.3mb 47f 50f
8:42 5 8 mph 1013.2mb 47f 50f
8:36 6 8 mph 1013.2mb 47f 50f
8:30 6 10 mph 1013.1mb 47f 50f
8:24 9 11 mph 1013.1mb 47f 50f
8:18 9 11 mph 1013.3mb 47f 50f
8:12 7 9 mph 1013.3mb 47f 50f
8:06 8 10 mph 1013.4mb 47f 50f
8:00 7 8 mph 1013.4mb 47f 50f
7:48 8 9 mph 1013.4mb 47f 49f
7:42 8 11 mph 1013.3mb 47f 49f
7:36 7 10 mph 1013.3mb 47f 49f
7:30 8 11 mph 1013.3mb 47f 49f
7:24 6 7 mph 1013.3mb 47f 49f
7:18 5 6 mph 1013.3mb 47f 49f
7:12 5 7 mph 1013.2mb 47f 49f
7:06 5 8 mph 1013.2mb 47f 49f
7:00 6 8 mph 1013mb 47f 49f
6:54 5 7 mph 1013mb 47f 49f
6:48 6
mph
1012.8mb 47f 49f
6:42 3 5 mph 1012.7mb 47f 48f
6:36 5 7 mph 1012.6mb 47f 48f
6:30 5 8 mph 1012.7mb 47f 48f
6:24 6 9 mph 1012.6mb 47f 48f
6:18 7 9 mph 1012.5mb 47f 48f
6:12 6 8 mph 1012.5mb 47f 48f
6:06 7 9 mph 1012.5mb 47f 48f
6:00 6 8 mph 1012.5mb 47f 48f
5:54 7 8 mph 1012.5mb 47f 48f
5:48 7 8 mph 1012.4mb 47f 47f
5:42 6 7 mph 1012.3mb 47f 47f
5:36 5
mph
1012.2mb 47f 47f
5:30 5 6 mph 1012.1mb 47f 47f
5:24 6 7 mph 1012mb 47f 48f
5:18 5
mph
1012mb 47f 48f
5:12 3
mph
1011.9mb 47f 48f
5:06 2 3 mph 1011.8mb 47f 48f
5:00 5
mph
1011.8mb 47f 48f
4:54 3 5 mph 1011.9mb 47f 48f
4:48 5
mph
1012mb 47f 48f
4:42 3 5 mph 1012mb 47f 48f
4:36 3 5 mph 1011.9mb 47f 49f
4:30 3 6 mph 1011.9mb 47f 49f
4:24 5 6 mph 1011.8mb 46f 49f
4:18 5 6 mph 1011.7mb 46f 49f
4:12 3 5 mph 1011.7mb 46f 49f
4:06 3 6 mph 1011.7mb 46f 49f
4:00 3
mph
1011.6mb 46f 48f
3:54 3
mph
1011.6mb 46f 48f
3:48 3 5 mph 1011.6mb 46f 48f
3:42 5 6 mph 1011.6mb 46f 48f
3:36 6
mph
1011.5mb 46f 48f
3:30 6
mph
1011.6mb 46f 47f
3:24 2 5 mph 1011.7mb 47f 48f
3:18 3 5 mph 1011.8mb 47f 47f
3:12 2 3 mph 1011.7mb 46f 48f
3:06 3 5 mph 1011.6mb 46f 49f
3:00 3
mph
1011.5mb 46f 49f
2:54 2 3 mph 1011.6mb 46f 49f
2:48 1 3 mph 1011.5mb 46f 50f
2:42 3 6 mph 1011.3mb 46f 51f
2:36 3 6 mph 1011.2mb 46f 50f
2:30 6 9 mph 1011.2mb 46f 51f
2:24 8 10 mph 1011mb 46f 51f
2:18 7 9 mph 1011.1mb 46f 51f
2:12 7 8 mph 1011.1mb 46f 51f
2:06 7 9 mph 1011.2mb 46f 51f
2:00 7 8 mph 1011.2mb 46f 51f
1:54 6 7 mph 1011.4mb 46f 51f
1:48 6 7 mph 1011.5mb 46f 51f
1:42 6 8 mph 1011.5mb 46f 51f
1:36 6 8 mph 1011.6mb 46f 51f
1:30 6 7 mph 1011.6mb 46f 51f
1:24 6 7 mph 1011.7mb 46f 51f
1:18 6 8 mph 1011.7mb 46f 51f
1:12 7 9 mph 1011.7mb 46f 51f
1:06 8 10 mph 1011.7mb 46f 51f
1:00 8 10 mph 1011.6mb 46f 51f
12:54 8 9 mph 1011.7mb 46f 51f
12:48 7 8 mph 1011.7mb 46f 51f
12:42 5 6 mph 1011.9mb 46f 51f
12:36 5 6 mph 1012mb 46f 51f
12:30 5 6 mph 1012mb 46f 51f
12:24 5 6 mph 1012mb 46f 51f
12:18 6 7 mph 1012mb 46f 51f
12:12 6
mph
1012mb 46f 51f
12:06 5 6 mph 1012.1mb 46f 51f
12:00 5 6 mph 1012.1mb 46f 51f
Mi 04/26 11:54 5 6 mph 1012mb 46f 51f
11:48 5 6 mph 1012mb 46f 51f
11:42 5 6 mph 1012mb 46f 51f
11:36 5 7 mph 1011.9mb 46f 51f
11:30 6 7 mph 1011.8mb 46f 51f
11:24 6 7 mph 1011.8mb 46f 51f
11:18 6
mph
1011.8mb 46f 51f
11:12 5 6 mph 1011.8mb 46f 51f
11:06 3 5 mph 1011.9mb 46f 51f
11:00 3 7 mph 1011.8mb 46f 51f
10:54 5 6 mph 1011.6mb 46f 51f
10:48 6 8 mph 1011.6mb 46f 51f
10:42 6 7 mph 1011.6mb 46f 51f
10:36 7 9 mph 1011.7mb 46f 51f
10:30 7 8 mph 1011.7mb 46f 51f
10:24 7 8 mph 1011.7mb 46f 51f
10:18 6 7 mph 1011.7mb 46f 51f
10:12 5 7 mph 1011.8mb 46f 51f
10:06 6 7 mph 1011.8mb 46f 51f
10:00 6 8 mph 1011.8mb 46f 51f
9:48 8 9 mph 1011.7mb 46f 51f
9:42 7 8 mph 1011.8mb 46f 51f
9:36 7 9 mph 1011.8mb 46f 51f
9:30 7 8 mph 1011.8mb 46f 51f
9:24 6 8 mph 1011.8mb 46f 51f
9:18 6 8 mph 1011.8mb 46f 51f
9:12 7 9 mph 1011.7mb 46f 51f
9:06 8 11 mph 1011.7mb 46f 51f
9:00 8 10 mph 1011.8mb 46f 51f
8:48 7 10 mph 1011.9mb 46f 51f
8:42 7 9 mph 1011.9mb 46f 51f
8:36 7 9 mph 1011.8mb 46f 51f
8:30 7 8 mph 1011.8mb 46f 52f
8:24 6 9 mph 1011.8mb 46f 52f
8:18 7 9 mph 1011.7mb 47f 52f
8:12 7 8 mph 1011.8mb 47f 52f
8:06 5 9 mph 1011.9mb 47f 52f
8:00 6 8 mph 1011.9mb 48f 52f
7:48 7 9 mph 1012mb 48f 52f
7:42 6 8 mph 1012mb 48f 52f
7:36 6 8 mph 1012.1mb 48f 52f
7:30 6 8 mph 1012.1mb 48f 52f
7:24 6 7 mph 1012.1mb 48f 53f
7:18 6 8 mph 1012.1mb 48f 53f
7:12 6 9 mph 1012mb 48f 53f
7:06 7 8 mph 1011.9mb 48f 53f
7:00 6 8 mph 1012mb 48f 53f
6:54 6 8 mph 1012mb 48f 53f
6:48 7 8 mph 1012mb 48f 53f
6:42 6 8 mph 1012mb 48f 53f
6:36 6 7 mph 1012.1mb 48f 53f
6:30 6 8 mph 1012mb 48f 53f
6:24 7 8 mph 1012mb 48f 53f
6:18 7 8 mph 1012mb 48f 52f
6:12 7 9 mph 1011.9mb 48f 52f
6:06 7 8 mph 1011.9mb 48f 53f
6:00 5 7 mph 1011.8mb 48f 53f
5:48 5 6 mph 1011.9mb 48f 53f
5:42 6 7 mph 1011.9mb 48f 53f
5:36 7 8 mph 1011.9mb 48f 53f
5:30 6 7 mph 1011.9mb 48f 53f
5:24 6 7 mph 1011.9mb 47f 53f
5:18 6 7 mph 1011.9mb 47f 53f
5:12 5 7 mph 1011.9mb 47f 53f
5:06 6 7 mph 1011.8mb 47f 53f
5:00 7
mph
1011.8mb 47f 53f
4:54 6 7 mph 1011.8mb 47f 53f
4:48 5 6 mph 1011.8mb 47f 53f
4:42 6 7 mph 1011.8mb 47f 53f
4:36 6 8 mph 1011.8mb 47f 53f
4:30 6 8 mph 1011.7mb 47f 53f
4:24 5 7 mph 1011.7mb 47f 53f
4:18 5 6 mph 1011.8mb 47f 53f
4:12 5 7 mph 1011.9mb 47f 53f
4:06 7 8 mph 1012mb 47f 53f
4:00 6 7 mph 1012mb 47f 53f
3:54 5
mph
1012.2mb 47f 53f
3:48 3 6 mph 1012.2mb 47f 53f
3:42 5 7 mph 1012.2mb 47f 53f
3:36 6
mph
1012.3mb 47f 53f
3:30 5 6 mph 1012.4mb 47f 53f
3:24 5 6 mph 1012.5mb 47f 53f
3:18 5 6 mph 1012.6mb 47f 53f
3:12 3 5 mph 1012.7mb 47f 53f
3:06 5 6 mph 1012.7mb 47f 53f
3:00 3 5 mph 1012.8mb 47f 53f
2:54 5 6 mph 1012.8mb 47f 53f
2:48 3 5 mph 1012.8mb 47f 53f
2:42 2 6 mph 1012.7mb 47f 53f
2:36 3 5 mph 1012.7mb 46f 53f
2:30 2 3 mph 1012.8mb 46f 54f
2:24 1 3 mph 1012.8mb 46f 54f
2:18  -  2 mph 1012.8mb 46f 53f
2:12 2 3 mph 1013mb 46f 54f
2:06 3 5 mph 1013mb 46f 54f
2:00 5
mph
1013mb 46f 54f
1:54 3 5 mph 1013mb 46f 54f
1:48 3 6 mph 1013mb 46f 53f
1:42 5 6 mph 1013mb 46f 53f
1:24 3 5 mph 1013.2mb 46f 53f
1:18 3
mph
1013.4mb 46f 53f
1:12 2 3 mph 1013.5mb 46f 52f
1:06 1 5 mph 1013.5mb 46f 52f
12:54 3 5 mph 1013.6mb 46f 52f
12:48 5 7 mph 1013.8mb 46f 53f
12:42 6 8 mph 1013.9mb 46f 52f
12:36 6 9 mph 1014mb 46f 51f
12:30 8 11 mph 1013.9mb 46f 51f
12:24 7 9 mph 1013.9mb 46f 51f
12:18 7 9 mph 1013.9mb 46f 51f
12:12 8 11 mph 1013.9mb 46f 50f
12:06 9 11 mph 1013.9mb 46f 50f
12:00 8 10 mph 1014mb 46f 50f
11:54 9 11 mph 1014mb 46f 50f
11:48 9 13 mph 1014mb 46f 50f
11:42 8 11 mph 1014.1mb 46f 50f
11:24 10 13 mph 1014.2mb 46f 50f
11:18 10 13 mph 1014.3mb 46f 50f
11:12 10 11 mph 1014.4mb 46f 50f
11:06 10 13 mph 1014.5mb 46f 50f
11:00 11 14 mph 1014.6mb 45f 50f
10:54 10 14 mph 1014.7mb 45f 50f
10:48 10 14 mph 1014.7mb 45f 49f
10:42 10 13 mph 1014.7mb 45f 49f
10:36 10 14 mph 1014.7mb 46f 49f
10:30 14 15 mph 1014.7mb 46f 49f
10:24 14 15 mph 1014.8mb 45f 49f
10:18 10 14 mph 1014.9mb 46f 49f
10:12 13 15 mph 1014.8mb 46f 49f
10:06 11 14 mph 1014.9mb 46f 49f
10:00 13 16 mph 1014.9mb 46f 49f
9:54 10 15 mph 1014.9mb 46f 49f
9:48 13 14 mph 1015mb 46f 49f
9:42 11 14 mph 1015mb 46f 49f
9:36 8 14 mph 1015.2mb 46f 49f
9:30 13 16 mph 1015.1mb 46f 49f
9:24 9 15 mph 1015.3mb 46f 48f
9:18 11 15 mph 1015.2mb 46f 48f
9:12 9 15 mph 1015.3mb 46f 48f
9:06 11 14 mph 1015.3mb 46f 48f
9:00 9 14 mph 1015.3mb 46f 48f
8:48 8 13 mph 1015.5mb 46f 48f
8:42 8 11 mph 1015.5mb 46f 48f
8:36 9 14 mph 1015.6mb 46f 48f
8:30 10 13 mph 1015.5mb 46f 47f
8:24 10 14 mph 1015.6mb 46f 47f
8:18 11 14 mph 1015.6mb 46f 47f
8:12 11 14 mph 1015.6mb 46f 47f
8:06 10 15 mph 1015.5mb 46f 47f
8:00 13 16 mph 1015.5mb 46f 47f
7:54 11 14 mph 1015.6mb 46f 47f
7:48 10 14 mph 1015.6mb 46f 47f
7:42 11 15 mph 1015.6mb 46f 47f
7:36 11 14 mph 1015.6mb 46f 47f
7:30 13 16 mph 1015.6mb 46f 46f
7:24 10 14 mph 1015.5mb 46f 46f
7:18 11 14 mph 1015.7mb 46f 46f
7:12 13 14 mph 1015.6mb 46f 46f
7:06 9 14 mph 1015.8mb 46f 46f
7:00 9 14 mph 1015.7mb 46f 46f
6:54 9 11 mph 1015.7mb 46f 46f
6:48 9 11 mph 1015.9mb 46f 46f
6:42 10 13 mph 1015.8mb 46f 46f
6:36 10 13 mph 1015.9mb 46f 46f
6:30 9 14 mph 1015.9mb 46f 46f
6:24 11 17 mph 1015.6mb 46f 46f
6:18 13 16 mph 1015.7mb 46f 46f
6:12 11 15 mph 1015.8mb 46f 46f
6:06 11 14 mph 1015.9mb 46f 46f
6:00 13 15 mph 1016.1mb 46f 46f
5:54 11 14 mph 1016mb 46f 46f
5:48 10 15 mph 1016mb 47f 46f
5:42 11 14 mph 1016mb 47f 46f
5:36 13 15 mph 1016.1mb 47f 46f
5:30 11 15 mph 1016.1mb 47f 45f
5:24 10 14 mph 1016.2mb 47f 45f
5:18 11 14 mph 1016.2mb 47f 45f
5:12 10 16 mph 1016.3mb 47f 45f
5:06 11 15 mph 1016.4mb 47f 45f
5:00 11 15 mph 1016.4mb 47f 45f
4:54 11 15 mph 1016.5mb 47f 45f
4:48 10 16 mph 1016.6mb 47f 45f
4:42 13 16 mph 1016.7mb 47f 45f
4:36 13 15 mph 1016.8mb 47f 45f
4:30 10 15 mph 1016.9mb 47f 45f
4:24 10 14 mph 1017mb 47f 45f
4:18 11 14 mph 1017.1mb 47f 45f
4:12 13 17 mph 1017mb 47f 45f
4:06 13 15 mph 1017.1mb 47f 45f
4:00 13 15 mph 1017.3mb 47f 45f
3:54 11 17 mph 1017.4mb 47f 45f
3:48 15 17 mph 1017.2mb 47f 45f
3:42 13 15 mph 1017.4mb 47f 45f
3:36 11 14 mph 1017.6mb 47f 45f
3:30 10 16 mph 1017.7mb 47f 45f
3:24 13 14 mph 1017.8mb 47f 45f
3:18 11 14 mph 1017.8mb 47f 45f
3:12 10 13 mph 1017.9mb 47f 45f
3:06 10 14 mph 1017.9mb 47f 45f
3:00 11 15 mph 1017.9mb 47f 45f
2:54 13 14 mph 1017.9mb 47f 45f
2:48 13 15 mph 1017.9mb 47f 45f
2:42 10 15 mph 1018mb 47f 45f
2:36 10 13 mph 1018.1mb 47f 45f
2:30 10 14 mph 1018.3mb 47f 45f
2:24 11 14 mph 1018.3mb 47f 45f
2:18 11 14 mph 1018.3mb 47f 45f
2:12 11 15 mph 1018.5mb 47f 45f
2:06 13 17 mph 1018.5mb 47f 45f
2:00 13 16 mph 1018.5mb 47f 45f
1:54 14 17 mph 1018.7mb 47f 45f
1:48 11 16 mph 1018.8mb 47f -
1:42 15 18 mph 1018.8mb 47f -
1:36 11 14 mph 1018.9mb 47f -
1:30 10 16 mph 1019.2mb 47f 45f
1:24 14 16 mph 1019.1mb 47f 44f
1:18 10 13 mph 1019.4mb 47f 44f
1:12 13 16 mph 1019.5mb 47f 44f
1:06 8 10 mph 1019.6mb 47f 44f
1:00 7 14 mph 1020mb 47f 44f
12:54 14 17 mph 1019.6mb 47f 44f
12:48 11 15 mph 1019.7mb 47f 44f
12:42 13 15 mph 1019.9mb 47f 44f
12:36 10 15 mph 1020.1mb 47f 44f
12:30 14 18 mph 1020.1mb 47f 44f
12:24 14 17 mph 1020.1mb 47f 44f
12:18 10 14 mph 1020.3mb 47f 44f
12:12 11 20 mph 1020.5mb 47f 44f
12:06 14 21 mph 1020.5mb 47f 44f
12:00 15 20 mph 1020.5mb 47f 44f
Di 04/25 11:54 14 18 mph 1020.7mb 47f 44f
11:48 16 20 mph 1020.6mb 47f 44f
11:42 16 20 mph 1020.8mb 47f 44f
11:36 15 20 mph 1021mb 47f 44f
11:30 15 18 mph 1021mb 47f 44f
11:24 15 20 mph 1021.1mb 47f 44f
11:18 15 20 mph 1021.2mb 47f 43f
11:12 11 18 mph 1021.4mb 47f 43f
11:06 13 16 mph 1021.6mb 47f 43f
11:00 13 16 mph 1021.8mb 47f 43f
10:54 11 16 mph 1021.9mb 47f 43f
10:48 10 14 mph 1021.9mb 47f 43f
10:42 14 18 mph 1021.9mb 47f 43f
10:36 11 15 mph 1022mb 47f 43f
10:30 10 17 mph 1022.2mb 47f 43f
10:24 14 17 mph 1022.2mb 47f 43f
10:18 11 14 mph 1022.4mb 47f 43f
10:12 11 18 mph 1022.6mb 47f 43f
10:06 13 17 mph 1022.6mb 47f 43f
10:00 14 17 mph 1022.7mb 47f 43f
9:48 11 16 mph 1023mb 47f 43f
9:42 10 17 mph 1023.2mb 47f 43f
9:36 14 17 mph 1023.2mb 47f 43f
9:30 13 17 mph 1023.2mb 47f 43f
9:24 14 18 mph 1023.3mb 47f 42f
9:18 14 18 mph 1023.3mb 47f 43f
9:12 14 16 mph 1023.3mb 47f 42f
9:06 15 20 mph 1023.5mb 47f 42f
9:00 15 18 mph 1023.5mb 47f 42f
8:48 15 18 mph 1023.4mb 47f 43f
8:42 14 17 mph 1023.5mb 47f 43f
8:36 13 17 mph 1023.6mb 47f 43f
8:30 13 16 mph 1023.8mb 47f 43f
8:24 11 15 mph 1024mb 47f 43f
8:18 11 16 mph 1024.2mb 47f 43f
8:12 10 15 mph 1024.3mb 47f 43f
8:06 11 16 mph 1024.3mb 47f 43f
8:00 13 17 mph 1024.2mb 47f 43f
7:48 14 17 mph 1024.3mb 47f 43f
7:42 13 16 mph 1024.4mb 48f 43f
7:36 9 15 mph 1024.5mb 48f 43f
7:30 11 16 mph 1024.6mb 48f 43f
7:24 11 14 mph 1024.6mb 48f 43f
7:18 11 14 mph 1024.6mb 49f 43f
7:12 14 21 mph 1024.6mb 49f 43f
7:06 11 17 mph 1024.7mb 49f 43f
7:00 9 11 mph 1024.8mb 49f 43f
6:48 11 16 mph 1025mb 49f 43f
6:42 8 13 mph 1025.2mb 49f 43f
6:36 13 18 mph 1025.1mb 49f 43f
6:30 14 18 mph 1025.1mb 49f 42f
6:24 13 16 mph 1025.2mb 49f 43f
6:18 11 17 mph 1025.2mb 49f 43f
6:12 13 23 mph 1025mb 49f 43f
6:06 14 17 mph 1025mb 49f 42f
6:00 11 17 mph 1025.3mb 49f 42f
5:48 14 24 mph 1025.4mb 49f 42f
5:42 13 18 mph 1025.4mb 48f 42f
5:36 13 14 mph 1025.6mb 48f 42f
5:30 14 20 mph 1025.5mb 48f 42f
5:24 14 16 mph 1025.5mb 48f 42f
5:18 11 20 mph 1025.5mb 48f 42f
5:12 13 16 mph 1025.4mb 48f 42f
5:06 13 16 mph 1025.5mb 48f 42f
5:00 9 16 mph 1025.4mb 48f 42f
4:54 10 16 mph 1025.5mb 48f 42f
4:48 10 14 mph 1025.6mb 48f 42f
4:42 9 16 mph 1025.6mb 48f 42f
4:36 11 16 mph 1025.6mb 48f 42f
4:30 11 15 mph 1025.8mb 48f 43f
4:24 10 16 mph 1025.8mb 48f 42f
4:18 11 17 mph 1025.8mb 48f 42f
4:12 10 16 mph 1025.9mb 48f 42f
4:06 11 16 mph 1026mb 48f 42f
4:00 14 18 mph 1026mb 48f 42f
3:54 14 20 mph 1026mb 48f 42f
3:48 13 18 mph 1026.2mb 48f 43f
3:42 14 18 mph 1026.3mb 48f 43f
3:36 11 18 mph 1026.5mb 48f 43f
3:30 11 16 mph 1026.6mb 48f 43f
3:24 14 18 mph 1026.6mb 48f 43f
3:18 14 21 mph 1026.7mb 48f 43f
3:12 11 18 mph 1026.9mb 48f 43f
3:06 13 22 mph 1026.9mb 48f 43f
3:00 14 20 mph 1027mb 48f 43f
2:54 14 21 mph 1027mb 48f 43f
2:48 15 20 mph 1027mb 48f 43f
2:42 14 20 mph 1027.2mb 48f 43f
2:36 15 22 mph 1027.2mb 48f 43f
2:30 11 17 mph 1027.3mb 48f 44f
2:24 16 22 mph 1027.2mb 48f 44f
2:18 16 21 mph 1027.3mb 48f 44f
2:12 15 20 mph 1027.3mb 48f 44f
2:06 14 22 mph 1027.4mb 48f 44f
2:00 16 21 mph 1027.4mb 48f 44f
1:54 14 18 mph 1027.4mb 48f 45f
1:48 13 23 mph 1027.3mb 48f 45f
1:42 15 22 mph 1027.3mb 48f 45f
1:36 15 21 mph 1027.4mb 48f 45f
1:30 15 18 mph 1027.5mb 48f 45f
1:24 17 21 mph 1027.5mb 48f 45f
1:18 10 16 mph 1027.6mb 48f 45f
1:12 15 21 mph 1027.6mb 48f 45f
1:06 14 20 mph 1027.7mb 48f 45f
1:00 14 18 mph 1027.6mb 48f 45f
12:54 14 21 mph 1027.7mb 48f 45f
12:48 16 21 mph 1027.7mb 48f 44f
12:42 13 20 mph 1027.9mb 48f 44f
12:36 13 18 mph 1028mb 47f 44f
12:30 14 16 mph 1028.2mb 47f 44f
12:24 10 17 mph 1028.3mb 47f 44f
12:18 10 21 mph 1028.3mb 47f 44f
12:12 11 17 mph 1028.3mb 47f 44f
12:06 15 21 mph 1028.2mb 47f 44f
12:00 13 16 mph 1028.4mb 47f 44f
11:54 13 16 mph 1028.2mb 47f 44f
11:48 15 22 mph 1028.2mb 47f 44f
11:42 15 17 mph 1028.3mb 47f 44f
11:36 9 14 mph 1028.5mb 47f 44f
11:30 9 16 mph 1028.5mb 47f 44f
11:24 11 16 mph 1028.4mb 47f 44f
11:18 14 17 mph 1028.4mb 47f 44f
11:12 13 16 mph 1028.4mb 47f 44f
11:06 13 16 mph 1028.2mb 47f 44f
11:00 13 17 mph 1028.2mb 47f 44f
10:54 10 15 mph 1028.4mb 47f 44f
10:48 11 16 mph 1028.2mb 47f 44f
10:42 11 18 mph 1028mb 47f 44f
10:36 14 17 mph 1028.1mb 47f 44f
10:30 10 14 mph 1028.2mb 47f 44f
10:24 11 15 mph 1028.2mb 47f 44f
10:18 14 17 mph 1028.2mb 47f 44f
10:12 14 20 mph 1028.1mb 47f 44f
10:06 16 20 mph 1028.3mb 47f 44f
10:00 13 16 mph 1028.4mb 47f 44f
9:54 14 17 mph 1028.4mb 47f 43f
9:48 13 15 mph 1028.4mb 47f 44f
9:42 11 16 mph 1028.5mb 47f 44f
9:36 11 15 mph 1028.4mb 47f 44f
9:30 9 11 mph 1028.4mb 47f 44f
9:24 10 13 mph 1028.4mb 47f 44f
9:18 9 13 mph 1028.4mb 47f 44f
9:12 9 11 mph 1028.4mb 47f 44f
9:06 9 13 mph 1028.3mb 47f 44f
9:00 9 11 mph 1028.3mb 47f 44f
8:54 7 9 mph 1028.3mb 47f 44f
8:48 6 11 mph 1028.2mb 47f 44f
8:42 7 13 mph 1028.2mb 47f 44f
8:36 11 15 mph 1027.9mb 47f 44f
8:30 9 14 mph 1027.8mb 47f 44f
8:24 9 14 mph 1027.8mb 47f 44f
8:18 9 14 mph 1027.9mb 47f 44f
8:12 11 14 mph 1027.9mb 47f 44f
8:06 9 11 mph 1027.9mb 47f 44f
8:00 9 14 mph 1027.8mb 47f 44f
7:54 9 11 mph 1027.8mb 47f 44f
7:48 10 14 mph 1027.7mb 47f 44f
7:42 11 14 mph 1027.7mb 47f 44f
7:36 9 11 mph 1027.5mb 48f 44f
7:30 7 10 mph 1027.5mb 48f 44f
7:24 8 10 mph 1027.5mb 48f 44f
7:18 8 11 mph 1027.4mb 49f 44f
7:12 7 9 mph 1027.3mb 49f 44f
7:06 7 11 mph 1027.2mb 49f 44f
7:00 6 11 mph 1027.1mb 49f 44f
6:54 7 10 mph 1027.1mb 49f 44f
6:48 8 11 mph 1026.7mb 49f 44f
6:42 7 13 mph 1026.5mb 49f 44f
6:36 10 15 mph 1026.2mb 49f 44f
6:30 11 15 mph 1026.2mb 49f 44f
6:24 8 13 mph 1026.2mb 49f 44f
6:18 7 10 mph 1026.2mb 49f 44f
6:12 11 14 mph 1026mb 49f 45f
6:06 9 11 mph 1025.8mb 49f 45f
6:00 7 11 mph 1025.9mb 49f 45f
5:54 7 9 mph 1025.7mb 49f 45f
5:48 7 8 mph 1025.9mb 49f 44f
5:42 8 10 mph 1025.8mb 49f 45f
5:36 8 10 mph 1025.7mb 49f 44f
5:30 7 8 mph 1025.7mb 49f 44f
5:24 7 11 mph 1025.8mb 49f 44f
5:18 8 11 mph 1025.7mb 49f 45f
5:12 9 11 mph 1025.6mb 49f 45f
5:06 8 10 mph 1025.6mb 49f 45f
5:00 6 8 mph 1025.6mb 49f 45f
4:54 6 9 mph 1025.5mb 49f 45f
4:48 6 8 mph 1025.5mb 49f 45f
4:42 7 9 mph 1025.5mb 49f 45f
4:36 9 11 mph 1025.4mb 49f 45f
4:30 7 9 mph 1025.5mb 49f 44f
4:24 7 9 mph 1025.5mb 49f 44f
4:18 7 10 mph 1025.6mb 49f 44f
4:12 7 9 mph 1025.4mb 49f 44f
4:06 8 10 mph 1025.4mb 49f 44f
4:00 8 9 mph 1025.3mb 49f 44f
3:54 7 10 mph 1025.3mb 49f 44f
3:48 6 9 mph 1025.3mb 49f 44f
3:42 8 10 mph 1025.3mb 49f 44f
3:36 7 10 mph 1025.3mb 49f 44f
3:30 7 9 mph 1025.3mb 49f 44f
3:24 8 10 mph 1025.3mb 49f 44f
3:18 7 9 mph 1025.3mb 49f 44f
3:12 7 9 mph 1025.2mb 49f 44f
3:06 7 9 mph 1025.2mb 49f 44f
3:00 8 9 mph 1025.1mb 49f 44f
2:54 8 10 mph 1025.1mb 49f 44f
2:48 8 9 mph 1025.1mb 49f -
2:42 7 8 mph 1025.1mb 49f -
2:36 7 9 mph 1025.1mb 49f -
2:30 7 9 mph 1025mb 49f 44f
2:24 8 9 mph 1025mb 49f 43f
2:18 7 8 mph 1025.1mb 49f 43f
2:12 7 8 mph 1025.1mb 49f 43f
2:06 6 7 mph 1025mb 49f 43f
2:00 6 7 mph 1024.9mb 49f 43f
1:54 6 7 mph 1024.9mb 49f 43f
1:48 6
mph
1024.9mb 49f 43f
1:42 6 7 mph 1024.9mb 49f 43f
1:36 6 7 mph 1024.8mb 49f 43f